sensor_id;sensor_type;location;lat;lon;timestamp;pressure;altitude;pressure_sealevel;temperature;humidity
68525;BME280;55524;51.380;13.372;2023-02-13T00:00:40;102796.28;;;5.11;100.00
68525;BME280;55524;51.380;13.372;2023-02-13T00:03:06;102798.03;;;5.12;100.00
68525;BME280;55524;51.380;13.372;2023-02-13T00:05:32;102796.50;;;5.22;100.00
68525;BME280;55524;51.380;13.372;2023-02-13T00:07:58;102797.47;;;5.25;100.00
68525;BME280;55524;51.380;13.372;2023-02-13T00:10:25;102792.13;;;5.21;100.00
68525;BME280;55524;51.380;13.372;2023-02-13T00:12:51;102794.75;;;5.22;100.00
68525;BME280;55524;51.380;13.372;2023-02-13T00:15:17;102797.44;;;5.24;100.00
68525;BME280;55524;51.380;13.372;2023-02-13T00:17:44;102802.78;;;5.28;100.00
68525;BME280;55524;51.380;13.372;2023-02-13T00:20:11;102794.91;;;5.27;100.00
68525;BME280;55524;51.380;13.372;2023-02-13T00:22:37;102793.19;;;5.29;100.00
68525;BME280;55524;51.380;13.372;2023-02-13T00:25:05;102790.66;;;5.33;100.00
68525;BME280;55524;51.380;13.372;2023-02-13T00:27:32;102788.91;;;5.34;100.00
68525;BME280;55524;51.380;13.372;2023-02-13T00:29:59;102790.56;;;5.30;100.00
68525;BME280;55524;51.380;13.372;2023-02-13T00:32:25;102787.06;;;5.28;100.00
68525;BME280;55524;51.380;13.372;2023-02-13T00:34:51;102788.81;;;5.29;100.00
68525;BME280;55524;51.380;13.372;2023-02-13T00:37:18;102787.06;;;5.30;100.00
68525;BME280;55524;51.380;13.372;2023-02-13T00:39:44;102786.25;;;5.31;100.00
68525;BME280;55524;51.380;13.372;2023-02-13T00:42:10;102789.69;;;5.30;100.00
68525;BME280;55524;51.380;13.372;2023-02-13T00:44:36;102786.25;;;5.31;100.00
68525;BME280;55524;51.380;13.372;2023-02-13T00:47:03;102788.88;;;5.31;100.00
68525;BME280;55524;51.380;13.372;2023-02-13T00:49:29;102782.88;;;5.38;100.00
68525;BME280;55524;51.380;13.372;2023-02-13T00:51:55;102785.41;;;5.32;100.00
68525;BME280;55524;51.380;13.372;2023-02-13T00:54:21;102785.41;;;5.32;100.00
68525;BME280;55524;51.380;13.372;2023-02-13T00:56:48;102783.63;;;5.31;100.00
68525;BME280;55524;51.380;13.372;2023-02-13T00:59:15;102787.16;;;5.33;100.00
68525;BME280;55524;51.380;13.372;2023-02-13T01:01:42;102784.44;;;5.30;100.00
68525;BME280;55524;51.380;13.372;2023-02-13T01:04:10;102780.31;;;5.39;100.00
68525;BME280;55524;51.380;13.372;2023-02-13T01:06:36;102784.56;;;5.34;100.00
68525;BME280;55524;51.380;13.372;2023-02-13T01:09:03;102777.53;;;5.33;100.00
68525;BME280;55524;51.380;13.372;2023-02-13T01:11:29;102779.28;;;5.33;100.00
68525;BME280;55524;51.380;13.372;2023-02-13T01:13:55;102785.41;;;5.32;100.00
68525;BME280;55524;51.380;13.372;2023-02-13T01:16:22;102787.16;;;5.33;100.00
68525;BME280;55524;51.380;13.372;2023-02-13T01:18:48;102784.50;;;5.31;100.00
68525;BME280;55524;51.380;13.372;2023-02-13T01:21:19;102781.84;;;5.30;100.00
68525;BME280;55524;51.380;13.372;2023-02-13T01:23:46;102776.59;;;5.30;100.00
68525;BME280;55524;51.380;13.372;2023-02-13T01:26:18;102781.78;;;5.27;100.00
68525;BME280;55524;51.380;13.372;2023-02-13T01:28:45;102784.34;;;5.24;100.00
68525;BME280;55524;51.380;13.372;2023-02-13T01:31:12;102779.09;;;5.24;100.00
68525;BME280;55524;51.380;13.372;2023-02-13T01:33:39;102776.47;;;5.24;100.00
68525;BME280;55524;51.380;13.372;2023-02-13T01:36:07;102781.72;;;5.24;100.00
68525;BME280;55524;51.380;13.372;2023-02-13T01:38:33;102784.34;;;5.24;100.00
68525;BME280;55524;51.380;13.372;2023-02-13T01:41:00;102782.59;;;5.24;100.00
68525;BME280;55524;51.380;13.372;2023-02-13T01:46:14;102775.59;;;5.23;100.00
68525;BME280;55524;51.380;13.372;2023-02-13T01:48:41;102776.47;;;5.24;100.00
68525;BME280;55524;51.380;13.372;2023-02-13T01:51:11;102775.59;;;5.23;100.00
68525;BME280;55524;51.380;13.372;2023-02-13T01:53:41;102774.72;;;5.23;100.00
68525;BME280;55524;51.380;13.372;2023-02-13T01:58:40;102773.84;;;5.24;100.00
68525;BME280;55524;51.380;13.372;2023-02-13T02:01:08;102783.47;;;5.25;100.00
68525;BME280;55524;51.380;13.372;2023-02-13T02:03:43;102773.00;;;5.26;100.00
68525;BME280;55524;51.380;13.372;2023-02-13T02:06:24;102774.81;;;5.27;100.00
68525;BME280;55524;51.380;13.372;2023-02-13T02:08:51;102770.38;;;5.26;100.00
68525;BME280;55524;51.380;13.372;2023-02-13T02:11:27;102761.63;;;5.24;100.00
68525;BME280;55524;51.380;13.372;2023-02-13T02:13:57;102756.38;;;5.24;100.00
68525;BME280;55524;51.380;13.372;2023-02-13T02:16:25;102757.34;;;5.28;100.00
68525;BME280;55524;51.380;13.372;2023-02-13T02:18:52;102763.56;;;5.33;100.00
68525;BME280;55524;51.380;13.372;2023-02-13T02:22:05;102753.84;;;5.29;100.00
68525;BME280;55524;51.380;13.372;2023-02-13T02:27:17;102760.91;;;5.31;100.00
68525;BME280;55524;51.380;13.372;2023-02-13T02:35:40;102757.53;;;5.38;100.00
68525;BME280;55524;51.380;13.372;2023-02-13T02:41:04;102755.78;;;5.36;100.00
68525;BME280;55524;51.380;13.372;2023-02-13T02:43:46;102753.16;;;5.37;100.00
68525;BME280;55524;51.380;13.372;2023-02-13T02:49:38;102763.56;;;5.34;100.00
68525;BME280;55524;51.380;13.372;2023-02-13T02:52:38;102765.31;;;5.34;100.00
68525;BME280;55524;51.380;13.372;2023-02-13T03:01:06;102754.75;;;5.29;100.00
68525;BME280;55524;51.380;13.372;2023-02-13T03:03:55;102763.47;;;5.28;100.00
68525;BME280;55524;51.380;13.372;2023-02-13T03:06:45;102764.34;;;5.29;100.00
68525;BME280;55524;51.380;13.372;2023-02-13T03:09:30;102769.50;;;5.26;100.00
68525;BME280;55524;51.380;13.372;2023-02-13T03:12:22;102769.50;;;5.26;100.00
68525;BME280;55524;51.380;13.372;2023-02-13T03:15:08;102765.16;;;5.26;100.00
68525;BME280;55524;51.380;13.372;2023-02-13T03:17:34;102766.88;;;5.26;100.00
68525;BME280;55524;51.380;13.372;2023-02-13T03:23:48;102770.38;;;5.26;100.00
68525;BME280;55524;51.380;13.372;2023-02-13T03:26:44;102769.59;;;5.29;100.00
68525;BME280;55524;51.380;13.372;2023-02-13T03:29:43;102771.25;;;5.25;100.00
68525;BME280;55524;51.380;13.372;2023-02-13T03:35:12;102776.50;;;5.25;100.00
68525;BME280;55524;51.380;13.372;2023-02-13T03:38:04;102774.03;;;5.31;100.00
68525;BME280;55524;51.380;13.372;2023-02-13T03:40:54;102769.50;;;5.26;100.00
68525;BME280;55524;51.380;13.372;2023-02-13T03:44:06;102766.88;;;5.26;100.00
68525;BME280;55524;51.380;13.372;2023-02-13T03:46:37;102770.34;;;5.23;100.00
68525;BME280;55524;51.380;13.372;2023-02-13T03:49:06;102771.22;;;5.24;100.00
68525;BME280;55524;51.380;13.372;2023-02-13T03:51:59;102772.03;;;5.21;100.00
68525;BME280;55524;51.380;13.372;2023-02-13T03:57:20;102781.63;;;5.21;100.00
68525;BME280;55524;51.380;13.372;2023-02-13T04:00:09;102780.69;;;5.18;100.00
68525;BME280;55524;51.380;13.372;2023-02-13T04:02:43;102777.19;;;5.16;100.00
68525;BME280;55524;51.380;13.372;2023-02-13T04:05:17;102786.91;;;5.22;100.00
68525;BME280;55524;51.380;13.372;2023-02-13T04:07:45;102778.94;;;5.17;100.00
68525;BME280;55524;51.380;13.372;2023-02-13T04:10:14;102774.63;;;5.20;100.00
68525;BME280;55524;51.380;13.372;2023-02-13T04:13:09;102777.19;;;5.16;100.00
68525;BME280;55524;51.380;13.372;2023-02-13T04:15:50;102776.28;;;5.16;100.00
68525;BME280;55524;51.380;13.372;2023-02-13T04:18:37;102771.97;;;5.18;100.00
68525;BME280;55524;51.380;13.372;2023-02-13T04:21:05;102780.66;;;5.15;100.00
68525;BME280;55524;51.380;13.372;2023-02-13T04:23:32;102776.25;;;5.14;100.00
68525;BME280;55524;51.380;13.372;2023-02-13T04:26:05;102779.00;;;5.21;100.00
68525;BME280;55524;51.380;13.372;2023-02-13T04:28:32;102780.69;;;5.18;100.00
68525;BME280;55524;51.380;13.372;2023-02-13T04:30:59;102789.41;;;5.16;100.00
68525;BME280;55524;51.380;13.372;2023-02-13T04:33:26;102781.53;;;5.16;100.00
68525;BME280;55524;51.380;13.372;2023-02-13T04:35:52;102782.41;;;5.15;100.00
68525;BME280;55524;51.380;13.372;2023-02-13T04:38:18;102779.72;;;5.13;100.00
68525;BME280;55524;51.380;13.372;2023-02-13T04:40:44;102783.31;;;5.18;100.00
68525;BME280;55524;51.380;13.372;2023-02-13T04:43:10;102777.97;;;5.12;100.00
68525;BME280;55524;51.380;13.372;2023-02-13T04:45:37;102771.00;;;5.14;100.00
68525;BME280;55524;51.380;13.372;2023-02-13T04:48:03;102771.84;;;5.13;100.00
68525;BME280;55524;51.380;13.372;2023-02-13T04:50:29;102767.47;;;5.12;100.00
68525;BME280;55524;51.380;13.372;2023-02-13T04:52:57;102758.81;;;5.15;100.00
68525;BME280;55524;51.380;13.372;2023-02-13T04:55:24;102761.38;;;5.13;100.00
68525;BME280;55524;51.380;13.372;2023-02-13T04:57:52;102758.06;;;5.22;100.00
68525;BME280;55524;51.380;13.372;2023-02-13T05:00:24;102766.84;;;5.23;100.00
68525;BME280;55524;51.380;13.372;2023-02-13T05:02:51;102771.06;;;5.17;100.00
68525;BME280;55524;51.380;13.372;2023-02-13T05:05:17;102770.22;;;5.18;100.00
68525;BME280;55524;51.380;13.372;2023-02-13T05:07:44;102772.00;;;5.20;100.00
68525;BME280;55524;51.380;13.372;2023-02-13T05:10:11;102775.50;;;5.20;100.00
68525;BME280;55524;51.380;13.372;2023-02-13T05:12:38;102773.88;;;5.25;100.00
68525;BME280;55524;51.380;13.372;2023-02-13T05:15:05;102780.00;;;5.26;100.00
68525;BME280;55524;51.380;13.372;2023-02-13T05:17:31;102772.97;;;5.23;100.00
68525;BME280;55524;51.380;13.372;2023-02-13T05:19:58;102779.03;;;5.22;100.00
68525;BME280;55524;51.380;13.372;2023-02-13T05:22:24;102779.13;;;5.25;100.00
68525;BME280;55524;51.380;13.372;2023-02-13T05:25:09;102775.63;;;5.25;100.00
68525;BME280;55524;51.380;13.372;2023-02-13T05:27:35;102780.75;;;5.20;100.00
68525;BME280;55524;51.380;13.372;2023-02-13T05:30:02;102774.72;;;5.24;100.00
68525;BME280;55524;51.380;13.372;2023-02-13T05:32:28;102780.94;;;5.28;100.00
68525;BME280;55524;51.380;13.372;2023-02-13T05:34:55;102780.84;;;5.23;100.00
68525;BME280;55524;51.380;13.372;2023-02-13T05:37:21;102786.78;;;5.16;100.00
68525;BME280;55524;51.380;13.372;2023-02-13T05:39:47;102779.88;;;5.20;100.00
68525;BME280;55524;51.380;13.372;2023-02-13T05:42:13;102778.91;;;5.16;100.00
68525;BME280;55524;51.380;13.372;2023-02-13T05:44:40;102783.31;;;5.18;100.00
68525;BME280;55524;51.380;13.372;2023-02-13T05:47:06;102788.44;;;5.12;100.00
68525;BME280;55524;51.380;13.372;2023-02-13T05:49:32;102785.84;;;5.14;100.00
68525;BME280;55524;51.380;13.372;2023-02-13T05:51:58;102785.91;;;5.15;100.00
68525;BME280;55524;51.380;13.372;2023-02-13T05:54:24;102788.53;;;5.17;100.00
68525;BME280;55524;51.380;13.372;2023-02-13T05:56:51;102783.19;;;5.12;100.00
68525;BME280;55524;51.380;13.372;2023-02-13T05:59:17;102780.50;;;5.09;100.00
68525;BME280;55524;51.380;13.372;2023-02-13T06:01:44;102778.88;;;5.14;100.00
68525;BME280;55524;51.380;13.372;2023-02-13T06:04:10;102777.94;;;5.11;100.00
68525;BME280;55524;51.380;13.372;2023-02-13T06:06:36;102771.84;;;5.12;100.00
68525;BME280;55524;51.380;13.372;2023-02-13T06:09:03;102774.47;;;5.12;100.00
68525;BME280;55524;51.380;13.372;2023-02-13T06:11:29;102778.75;;;5.10;100.00
68525;BME280;55524;51.380;13.372;2023-02-13T06:13:55;102777.81;;;5.06;100.00
68525;BME280;55524;51.380;13.372;2023-02-13T06:16:22;102775.19;;;5.06;100.00
68525;BME280;55524;51.380;13.372;2023-02-13T06:18:48;102781.28;;;5.05;100.00
68525;BME280;55524;51.380;13.372;2023-02-13T06:21:14;102790.03;;;5.06;100.00
68525;BME280;55524;51.380;13.372;2023-02-13T06:23:40;102791.84;;;5.08;100.00
68525;BME280;55524;51.380;13.372;2023-02-13T06:26:08;102788.38;;;5.09;100.00
68525;BME280;55524;51.380;13.372;2023-02-13T06:28:35;102789.25;;;5.10;100.00
68525;BME280;55524;51.380;13.372;2023-02-13T06:31:02;102791.88;;;5.10;100.00
68525;BME280;55524;51.380;13.372;2023-02-13T06:33:28;102796.22;;;5.09;100.00
68525;BME280;55524;51.380;13.372;2023-02-13T06:35:54;102788.38;;;5.09;100.00
68525;BME280;55524;51.380;13.372;2023-02-13T06:38:21;102788.25;;;5.03;100.00
68525;BME280;55524;51.380;13.372;2023-02-13T06:40:48;102792.56;;;5.03;100.00
68525;BME280;55524;51.380;13.372;2023-02-13T06:43:15;102789.22;;;5.08;100.00
68525;BME280;55524;51.380;13.372;2023-02-13T06:45:43;102798.72;;;5.03;100.00
68525;BME280;55524;51.380;13.372;2023-02-13T06:48:09;102800.31;;;4.98;100.00
68525;BME280;55524;51.380;13.372;2023-02-13T06:50:35;102804.97;;;5.10;100.00
68525;BME280;55524;51.380;13.372;2023-02-13T06:53:02;102812.84;;;5.10;100.00
68525;BME280;55524;51.380;13.372;2023-02-13T06:55:28;102812.88;;;5.11;100.00
68525;BME280;55524;51.380;13.372;2023-02-13T06:57:54;102816.22;;;5.04;100.00
68525;BME280;55524;51.380;13.372;2023-02-13T07:00:21;102813.69;;;5.09;100.00
68525;BME280;55524;51.380;13.372;2023-02-13T07:02:49;102815.50;;;5.11;100.00
68525;BME280;55524;51.380;13.372;2023-02-13T07:05:15;102813.72;;;5.10;100.00
68525;BME280;55524;51.380;13.372;2023-02-13T07:07:41;102817.16;;;5.08;100.00
68525;BME280;55524;51.380;13.372;2023-02-13T07:10:12;102825.06;;;5.09;100.00
68525;BME280;55524;51.380;13.372;2023-02-13T07:12:38;102819.72;;;5.06;100.00
68525;BME280;55524;51.380;13.372;2023-02-13T07:15:05;102825.81;;;5.04;100.00
68525;BME280;55524;51.380;13.372;2023-02-13T07:17:33;102827.72;;;5.11;100.00
68525;BME280;55524;51.380;13.372;2023-02-13T07:19:59;102823.38;;;5.11;100.00
68525;BME280;55524;51.380;13.372;2023-02-13T07:22:26;102825.91;;;5.08;100.00
68525;BME280;55524;51.380;13.372;2023-02-13T07:24:52;102833.97;;;5.16;100.00
68525;BME280;55524;51.380;13.372;2023-02-13T07:27:19;102838.25;;;5.12;100.00
68525;BME280;55524;51.380;13.372;2023-02-13T07:29:45;102837.38;;;5.13;100.00
68525;BME280;55524;51.380;13.372;2023-02-13T07:32:11;102838.22;;;5.11;100.00
68525;BME280;55524;51.380;13.372;2023-02-13T07:34:38;102841.66;;;5.10;100.00
68525;BME280;55524;51.380;13.372;2023-02-13T07:37:04;102838.25;;;5.12;100.00
68525;BME280;55524;51.380;13.372;2023-02-13T07:39:30;102833.00;;;5.12;100.00
68525;BME280;55524;51.380;13.372;2023-02-13T07:41:56;102827.75;;;5.12;100.00
68525;BME280;55524;51.380;13.372;2023-02-13T07:44:23;102838.16;;;5.09;100.00
68525;BME280;55524;51.380;13.372;2023-02-13T07:46:49;102833.78;;;5.10;100.00
68525;BME280;55524;51.380;13.372;2023-02-13T07:49:15;102837.28;;;5.10;100.00
68525;BME280;55524;51.380;13.372;2023-02-13T07:51:41;102843.41;;;5.09;100.00
68525;BME280;55524;51.380;13.372;2023-02-13T07:54:07;102839.19;;;5.16;100.00
68525;BME280;55524;51.380;13.372;2023-02-13T07:56:34;102843.59;;;5.17;100.00
68525;BME280;55524;51.380;13.372;2023-02-13T07:59:00;102849.69;;;5.16;100.00
68525;BME280;55524;51.380;13.372;2023-02-13T08:01:26;102847.06;;;5.16;100.00
68525;BME280;55524;51.380;13.372;2023-02-13T08:03:53;102851.47;;;5.18;100.00
68525;BME280;55524;51.380;13.372;2023-02-13T08:06:20;102845.44;;;5.21;100.00
68525;BME280;55524;51.380;13.372;2023-02-13T08:08:46;102849.88;;;5.24;100.00
68525;BME280;55524;51.380;13.372;2023-02-13T08:11:33;102846.38;;;5.25;100.00
68525;BME280;55524;51.380;13.372;2023-02-13T08:14:18;102853.38;;;5.26;100.00
68525;BME280;55524;51.380;13.372;2023-02-13T08:16:44;102850.06;;;5.33;100.00
68525;BME280;55524;51.380;13.372;2023-02-13T08:19:11;102851.84;;;5.34;100.00
68525;BME280;55524;51.380;13.372;2023-02-13T08:21:37;102852.00;;;5.40;100.00
68525;BME280;55524;51.380;13.372;2023-02-13T08:24:05;102852.84;;;5.39;100.00
68525;BME280;55524;51.380;13.372;2023-02-13T08:26:32;102856.38;;;5.41;100.00
68525;BME280;55524;51.380;13.372;2023-02-13T08:28:59;102853.06;;;5.48;100.00
68525;BME280;55524;51.380;13.372;2023-02-13T08:31:25;102849.56;;;5.49;100.00
68525;BME280;55524;51.380;13.372;2023-02-13T08:33:51;102859.28;;;5.53;100.00
68525;BME280;55524;51.380;13.372;2023-02-13T08:36:18;102853.25;;;5.57;100.00
68525;BME280;55524;51.380;13.372;2023-02-13T08:38:47;102850.69;;;5.60;100.00
68525;BME280;55524;51.380;13.372;2023-02-13T08:41:14;102851.69;;;5.65;100.00
68525;BME280;55524;51.380;13.372;2023-02-13T08:43:42;102846.50;;;5.68;100.00
68525;BME280;55524;51.380;13.372;2023-02-13T08:46:09;102845.88;;;5.80;100.00
68525;BME280;55524;51.380;13.372;2023-02-13T08:48:35;102851.22;;;5.83;100.00
68525;BME280;55524;51.380;13.372;2023-02-13T08:51:06;102853.25;;;5.95;100.00
68525;BME280;55524;51.380;13.372;2023-02-13T08:53:33;102860.38;;;6.02;100.00
68525;BME280;55524;51.380;13.372;2023-02-13T08:56:00;102861.13;;;5.95;100.00
68525;BME280;55524;51.380;13.372;2023-02-13T08:58:26;102867.41;;;6.03;100.00
68525;BME280;55524;51.380;13.372;2023-02-13T09:00:54;102866.53;;;6.04;100.00
68525;BME280;55524;51.380;13.372;2023-02-13T09:03:20;102871.84;;;6.07;100.00
68525;BME280;55524;51.380;13.372;2023-02-13T09:05:46;102868.44;;;6.11;100.00
68525;BME280;55524;51.380;13.372;2023-02-13T09:08:13;102869.56;;;6.23;100.00
68525;BME280;55524;51.380;13.372;2023-02-13T09:10:40;102867.78;;;6.22;100.00
68525;BME280;55524;51.380;13.372;2023-02-13T09:13:09;102870.41;;;6.22;100.00
68525;BME280;55524;51.380;13.372;2023-02-13T09:15:38;102861.75;;;6.27;100.00
68525;BME280;55524;51.380;13.372;2023-02-13T09:18:08;102866.28;;;6.36;100.00
68525;BME280;55524;51.380;13.372;2023-02-13T09:20:34;102874.25;;;6.40;100.00
68525;BME280;55524;51.380;13.372;2023-02-13T09:23:00;102873.38;;;6.38;100.00
68525;BME280;55524;51.380;13.372;2023-02-13T09:25:26;102870.69;;;6.37;100.00
68525;BME280;55524;51.380;13.372;2023-02-13T09:27:53;102871.69;;;6.42;100.00
68525;BME280;55524;51.380;13.372;2023-02-13T09:30:19;102860.41;;;6.49;100.00
68525;BME280;55524;51.380;13.372;2023-02-13T09:32:49;102865.78;;;6.54;100.00
68525;BME280;55524;51.380;13.372;2023-02-13T09:35:17;102865.00;;;6.59;100.00
68525;BME280;55524;51.380;13.372;2023-02-13T09:37:43;102859.94;;;6.72;100.00
68525;BME280;55524;51.380;13.372;2023-02-13T09:40:35;102866.00;;;6.66;100.00
68525;BME280;55524;51.380;13.372;2023-02-13T09:43:12;102861.03;;;6.81;100.00
68525;BME280;55524;51.380;13.372;2023-02-13T09:45:39;102861.94;;;6.85;100.00
68525;BME280;55524;51.380;13.372;2023-02-13T09:48:07;102861.28;;;6.98;100.00
68525;BME280;55524;51.380;13.372;2023-02-13T09:50:40;102866.69;;;7.06;100.00
68525;BME280;55524;51.380;13.372;2023-02-13T09:53:06;102866.63;;;7.03;100.00
68525;BME280;55524;51.380;13.372;2023-02-13T09:56:03;102863.19;;;7.08;100.00
68525;BME280;55524;51.380;13.372;2023-02-13T09:58:38;102859.81;;;7.14;100.00
68525;BME280;55524;51.380;13.372;2023-02-13T10:03:54;102859.38;;;7.44;100.00
68525;BME280;55524;51.380;13.372;2023-02-13T10:09:11;102865.44;;;7.37;100.00
68525;BME280;55524;51.380;13.372;2023-02-13T10:12:00;102866.25;;;7.36;100.00
68525;BME280;55524;51.380;13.372;2023-02-13T10:17:35;102860.00;;;7.28;100.00
68525;BME280;55524;51.380;13.372;2023-02-13T10:20:15;102862.56;;;7.23;100.00
68525;BME280;55524;51.380;13.372;2023-02-13T10:22:51;102862.69;;;7.32;100.00
68525;BME280;55524;51.380;13.372;2023-02-13T10:25:28;102851.41;;;7.36;100.00
68525;BME280;55524;51.380;13.372;2023-02-13T10:28:10;102854.22;;;7.52;100.00
68525;BME280;55524;51.380;13.372;2023-02-13T10:30:54;102855.91;;;7.48;100.00
68525;BME280;55524;51.380;13.372;2023-02-13T10:33:50;102854.38;;;7.62;100.00
68525;BME280;55524;51.380;13.372;2023-02-13T10:36:44;102851.75;;;7.62;100.00
68525;BME280;55524;51.380;13.372;2023-02-13T10:58:30;102820.78;;;7.43;100.00
68525;BME280;55524;51.380;13.372;2023-02-13T11:04:11;102819.78;;;7.33;100.00
68525;BME280;55524;51.380;13.372;2023-02-13T11:07:00;102816.97;;;7.21;100.00
68525;BME280;55524;51.380;13.372;2023-02-13T11:09:28;102816.00;;;7.16;100.00
68525;BME280;55524;51.380;13.372;2023-02-13T11:11:58;102808.31;;;7.30;100.00
68525;BME280;55524;51.380;13.372;2023-02-13T11:14:54;102800.44;;;7.31;100.00
68525;BME280;55524;51.380;13.372;2023-02-13T11:17:21;102805.69;;;7.30;100.00
68525;BME280;55524;51.380;13.372;2023-02-13T11:19:52;102805.75;;;7.34;100.00
68525;BME280;55524;51.380;13.372;2023-02-13T11:22:32;102803.31;;;7.48;100.00
68525;BME280;55524;51.380;13.372;2023-02-13T11:25:05;102803.28;;;7.47;100.00
68525;BME280;55524;51.380;13.372;2023-02-13T11:27:34;102799.91;;;7.55;100.00
68525;BME280;55524;51.380;13.372;2023-02-13T11:30:52;102803.41;;;7.56;99.98
68525;BME280;55524;51.380;13.372;2023-02-13T11:33:26;102792.09;;;7.61;98.05
68525;BME280;55524;51.380;13.372;2023-02-13T11:39:19;102796.59;;;7.69;98.78
68525;BME280;55524;51.380;13.372;2023-02-13T11:41:47;102798.28;;;7.67;99.39
68525;BME280;55524;51.380;13.372;2023-02-13T11:44:28;102802.56;;;7.58;99.17
68525;BME280;55524;51.380;13.372;2023-02-13T11:47:00;102793.84;;;7.62;99.07
68525;BME280;55524;51.380;13.372;2023-02-13T11:49:30;102792.19;;;7.69;98.35
68525;BME280;55524;51.380;13.372;2023-02-13T11:52:11;102791.38;;;7.75;98.40
68525;BME280;55524;51.380;13.372;2023-02-13T11:55:05;102785.31;;;7.80;98.16
68525;BME280;55524;51.380;13.372;2023-02-13T11:58:01;102782.56;;;7.70;96.95
68525;BME280;55524;51.380;13.372;2023-02-13T12:00:34;102782.56;;;7.71;96.89
68525;BME280;55524;51.380;13.372;2023-02-13T12:08:37;102778.94;;;7.61;96.30
68525;BME280;55524;51.380;13.372;2023-02-13T12:13:40;102778.13;;;7.67;97.85
68525;BME280;55524;51.380;13.372;2023-02-13T12:16:19;102770.13;;;7.58;96.77
68525;BME280;55524;51.380;13.372;2023-02-13T12:18:50;102767.50;;;7.59;95.19
68525;BME280;55524;51.380;13.372;2023-02-13T12:27:22;102763.00;;;7.49;98.02
68525;BME280;55524;51.380;13.372;2023-02-13T12:32:34;102755.91;;;7.44;97.21
68525;BME280;55524;51.380;13.372;2023-02-13T12:46:16;102765.09;;;7.11;99.21
68525;BME280;55524;51.380;13.372;2023-02-13T12:51:43;102762.47;;;7.11;100.00
68525;BME280;55524;51.380;13.372;2023-02-13T12:54:25;102761.59;;;7.10;100.00
68525;BME280;55524;51.380;13.372;2023-02-13T12:57:09;102759.84;;;7.12;100.00
68525;BME280;55524;51.380;13.372;2023-02-13T12:59:49;102758.03;;;7.07;100.00
68525;BME280;55524;51.380;13.372;2023-02-13T13:02:46;102754.53;;;7.08;100.00
68525;BME280;55524;51.380;13.372;2023-02-13T13:08:33;102760.34;;;6.85;100.00
68525;BME280;55524;51.380;13.372;2023-02-13T13:21:47;102765.78;;;6.99;100.00
68525;BME280;55524;51.380;13.372;2023-02-13T13:24:26;102760.66;;;7.05;100.00
68525;BME280;55524;51.380;13.372;2023-02-13T13:26:57;102766.78;;;7.06;100.00
68525;BME280;55524;51.380;13.372;2023-02-13T13:29:39;102759.81;;;7.09;100.00
68525;BME280;55524;51.380;13.372;2023-02-13T13:32:15;102763.28;;;7.08;100.00
68525;BME280;55524;51.380;13.372;2023-02-13T13:34:43;102757.91;;;7.01;100.00
68525;BME280;55524;51.380;13.372;2023-02-13T13:42:30;102757.97;;;7.04;100.00
68525;BME280;55524;51.380;13.372;2023-02-13T13:50:34;102749.25;;;7.06;100.00
68525;BME280;55524;51.380;13.372;2023-02-13T13:53:17;102757.97;;;7.04;100.00
68525;BME280;55524;51.380;13.372;2023-02-13T13:58:44;102758.84;;;7.04;100.00
68525;BME280;55524;51.380;13.372;2023-02-13T14:03:43;102764.03;;;7.00;100.00
68525;BME280;55524;51.380;13.372;2023-02-13T14:06:18;102765.72;;;6.93;100.00
68525;BME280;55524;51.380;13.372;2023-02-13T14:11:33;102768.34;;;6.95;100.00
68525;BME280;55524;51.380;13.372;2023-02-13T14:14:01;102769.16;;;6.89;100.00
68525;BME280;55524;51.380;13.372;2023-02-13T14:16:47;102770.75;;;6.81;100.00
68525;BME280;55524;51.380;13.372;2023-02-13T14:19:36;102761.09;;;6.78;100.00
68525;BME280;55524;51.380;13.372;2023-02-13T14:24:56;102762.72;;;6.70;100.00
68525;BME280;55524;51.380;13.372;2023-02-13T14:27:26;102751.09;;;6.56;100.00
68525;BME280;55524;51.380;13.372;2023-02-13T14:29:54;102747.59;;;6.55;100.00
68525;BME280;55524;51.380;13.372;2023-02-13T14:32:37;102754.34;;;6.41;100.00
68525;BME280;55524;51.380;13.372;2023-02-13T14:35:19;102755.09;;;6.34;100.00
68525;BME280;55524;51.380;13.372;2023-02-13T14:37:54;102758.34;;;6.21;100.00
68525;BME280;55524;51.380;13.372;2023-02-13T14:40:28;102748.56;;;6.10;100.00
68525;BME280;55524;51.380;13.372;2023-02-13T14:43:21;102749.66;;;6.22;100.00
68525;BME280;55524;51.380;13.372;2023-02-13T14:48:41;102745.06;;;6.11;100.00
68525;BME280;55524;51.380;13.372;2023-02-13T14:51:34;102751.09;;;6.06;100.00
68525;BME280;55524;51.380;13.372;2023-02-13T14:56:47;102750.03;;;5.98;100.00
68525;BME280;55524;51.380;13.372;2023-02-13T14:59:26;102742.09;;;5.93;100.00
68525;BME280;55524;51.380;13.372;2023-02-13T15:02:01;102736.84;;;5.93;100.00
68525;BME280;55524;51.380;13.372;2023-02-13T15:04:42;102734.22;;;5.93;100.00
68525;BME280;55524;51.380;13.372;2023-02-13T15:07:16;102727.22;;;5.92;100.00
68525;BME280;55524;51.380;13.372;2023-02-13T15:14:52;102723.38;;;5.78;100.00
68525;BME280;55524;51.380;13.372;2023-02-13T15:17:21;102727.75;;;5.76;100.00
68525;BME280;55524;51.380;13.372;2023-02-13T15:20:23;102724.16;;;5.71;100.00
68525;BME280;55524;51.380;13.372;2023-02-13T15:22:52;102718.84;;;5.69;100.00
68525;BME280;55524;51.380;13.372;2023-02-13T15:27:55;102717.81;;;5.59;100.00
68525;BME280;55524;51.380;13.372;2023-02-13T15:30:31;102715.09;;;5.56;100.00
68525;BME280;55524;51.380;13.372;2023-02-13T15:33:00;102712.34;;;5.50;100.00